Time;durP1;ratioP1;P1;durP2;ratioP2;P2;SDS_P1;SDS_P2;PMS_P1;PMS_P2;Temp;Humidity;BMP_temperature;BMP_pressure;BME280_temperature;BME280_humidity;BME280_pressure;Samples;Min_cycle;Max_cycle;Signal;HPM_P1;HPM_P2
2021/11/11 00:04:19;;;;;;;19.58;12.50;;;;;;;;;;4992190;28;20454;-52
2021/11/11 00:06:45;;;;;;;30.20;13.23;;;;;;;;;;4992420;28;20165;-52
2021/11/11 00:09:11;;;;;;;25.45;13.45;;;;;;;;;;4992160;28;20169;-52
2021/11/11 00:11:37;;;;;;;20.20;12.40;;;;;;;;;;4992160;28;20544;-52
2021/11/11 00:14:03;;;;;;;24.90;13.53;;;;;;;;;;4992507;28;20450;-52
2021/11/11 00:16:29;;;;;;;29.47;14.57;;;;;;;;;;4992162;28;20474;-52
2021/11/11 00:18:55;;;;;;;24.93;16.40;;;;;;;;;;4991928;28;20440;-52
2021/11/11 00:21:21;;;;;;;31.47;15.43;;;;;;;;;;4992210;28;20783;-52
2021/11/11 00:23:47;;;;;;;28.13;15.68;;;;;;;;;;4992107;28;20424;-52
2021/11/11 00:26:13;;;;;;;27.97;14.57;;;;;;;;;;4992146;28;20169;-52
2021/11/11 00:28:39;;;;;;;20.30;14.13;;;;;;;;;;4991795;28;20776;-52
2021/11/11 00:31:05;;;;;;;22.37;13.67;;;;;;;;;;4992035;28;20768;-52
2021/11/11 00:33:31;;;;;;;20.38;12.73;;;;;;;;;;4991779;28;20463;-52
2021/11/11 00:35:57;;;;;;;18.75;12.90;;;;;;;;;;4991930;28;20172;-52
2021/11/11 00:38:24;;;;;;;23.17;14.48;;;;;;;;;;4991444;28;20168;-52
2021/11/11 00:40:50;;;;;;;30.20;16.02;;;;;;;;;;4993188;28;20212;-52
2021/11/11 00:43:16;;;;;;;28.08;16.63;;;;;;;;;;4995828;28;20199;-52
2021/11/11 00:45:42;;;;;;;27.23;16.00;;;;;;;;;;4995530;28;20173;-52
2021/11/11 00:48:08;;;;;;;25.83;15.63;;;;;;;;;;4995146;28;20415;-52
2021/11/11 00:50:34;;;;;;;25.05;15.07;;;;;;;;;;4995419;28;20419;-52
2021/11/11 00:53:01;;;;;;;25.17;14.70;;;;;;;;;;4995244;28;20267;-52
2021/11/11 00:55:27;;;;;;;23.33;14.68;;;;;;;;;;4995639;28;20538;-52
2021/11/11 00:57:53;;;;;;;29.70;16.77;;;;;;;;;;4994924;28;20172;-52
2021/11/11 01:00:20;;;;;;;36.70;16.65;;;;;;;;;;4995254;28;20169;-52
2021/11/11 01:02:47;;;;;;;31.30;16.90;;;;;;;;;;4995060;28;20624;-52
2021/11/11 01:05:14;;;;;;;22.92;15.63;;;;;;;;;;4995220;28;20172;-52
2021/11/11 01:07:40;;;;;;;27.48;15.93;;;;;;;;;;4994839;28;20248;-52
2021/11/11 01:10:07;;;;;;;21.48;14.15;;;;;;;;;;4995126;28;20165;-52
2021/11/11 01:12:33;;;;;;;27.55;15.68;;;;;;;;;;4994734;28;20213;-52
2021/11/11 01:14:59;;;;;;;31.85;18.48;;;;;;;;;;4995002;28;20173;-51
2021/11/11 01:17:26;;;;;;;25.83;16.58;;;;;;;;;;4994669;28;20198;-51
2021/11/11 01:19:52;;;;;;;24.48;16.58;;;;;;;;;;4995014;28;20171;-52
2021/11/11 01:22:18;;;;;;;27.42;15.50;;;;;;;;;;4994877;28;20203;-52
2021/11/11 01:24:44;;;;;;;34.83;16.67;;;;;;;;;;4994856;28;20774;-52
2021/11/11 01:27:10;;;;;;;35.72;19.05;;;;;;;;;;4994643;28;20396;-51
2021/11/11 01:29:36;;;;;;;36.40;19.40;;;;;;;;;;4994471;28;20520;-52
2021/11/11 01:32:02;;;;;;;35.08;19.55;;;;;;;;;;4994506;28;20672;-52
2021/11/11 01:34:28;;;;;;;35.58;19.20;;;;;;;;;;4994648;28;20175;-52
2021/11/11 01:36:55;;;;;;;22.13;14.73;;;;;;;;;;4994525;28;20216;-52
2021/11/11 01:39:22;;;;;;;37.00;16.33;;;;;;;;;;4994340;28;20540;-52
2021/11/11 01:41:48;;;;;;;32.63;17.40;;;;;;;;;;4994465;28;20257;-52
2021/11/11 01:44:18;;;;;;;33.85;16.70;;;;;;;;;;4994348;28;20187;-52
2021/11/11 01:46:44;;;;;;;34.08;15.32;;;;;;;;;;4994314;28;20277;-51
2021/11/11 01:49:11;;;;;;;32.47;16.23;;;;;;;;;;4994390;28;20220;-52
2021/11/11 01:51:37;;;;;;;31.75;16.77;;;;;;;;;;4994201;28;20249;-52
2021/11/11 01:54:04;;;;;;;24.43;15.97;;;;;;;;;;4993726;28;20605;-51
2021/11/11 01:56:30;;;;;;;33.15;16.52;;;;;;;;;;4994133;28;20405;-51
2021/11/11 01:58:56;;;;;;;29.38;15.85;;;;;;;;;;4993869;28;20644;-51
2021/11/11 02:01:22;;;;;;;30.73;16.33;;;;;;;;;;4994084;28;20629;-52
2021/11/11 02:03:48;;;;;;;33.13;15.97;;;;;;;;;;4993381;28;20216;-52
2021/11/11 02:06:15;;;;;;;28.98;16.15;;;;;;;;;;4993659;28;20408;-52
2021/11/11 02:08:41;;;;;;;28.50;16.60;;;;;;;;;;4993708;28;20173;-52
2021/11/11 02:11:07;;;;;;;33.80;17.33;;;;;;;;;;4993931;28;20169;-52
2021/11/11 02:13:33;;;;;;;26.35;16.13;;;;;;;;;;4993461;28;20819;-52
2021/11/11 02:15:59;;;;;;;32.53;17.30;;;;;;;;;;4993808;28;20657;-52
2021/11/11 02:18:25;;;;;;;30.77;16.23;;;;;;;;;;4993580;28;20165;-52
2021/11/11 02:20:51;;;;;;;31.80;16.87;;;;;;;;;;4993800;28;20169;-51
2021/11/11 02:23:19;;;;;;;33.43;17.07;;;;;;;;;;4993706;28;20428;-52
2021/11/11 02:25:45;;;;;;;28.85;16.95;;;;;;;;;;4993713;28;20443;-51
2021/11/11 02:28:13;;;;;;;27.50;17.25;;;;;;;;;;4993394;28;20255;-52
2021/11/11 02:30:41;;;;;;;31.75;16.98;;;;;;;;;;4993557;28;20645;-52
2021/11/11 02:33:22;;;;;;;30.17;16.98;;;;;;;;;;4993393;28;20205;-53
2021/11/11 02:35:48;;;;;;;29.73;17.15;;;;;;;;;;4993532;28;20177;-52
2021/11/11 02:38:15;;;;;;;27.75;16.15;;;;;;;;;;4993197;28;20212;-52
2021/11/11 02:40:41;;;;;;;26.92;16.30;;;;;;;;;;4993294;28;20173;-52
2021/11/11 02:43:09;;;;;;;23.42;15.00;;;;;;;;;;4993429;28;20619;-52
2021/11/11 02:48:39;;;;;;;23.70;15.15;;;;;;;;;;4993281;28;20176;-52
2021/11/11 02:51:05;;;;;;;28.25;16.60;;;;;;;;;;4993161;28;20188;-51
2021/11/11 02:53:31;;;;;;;25.50;15.10;;;;;;;;;;4993006;28;20209;-52
2021/11/11 02:55:57;;;;;;;24.80;15.37;;;;;;;;;;4993107;28;20428;-52
2021/11/11 02:58:24;;;;;;;38.15;16.75;;;;;;;;;;4992783;28;20413;-52
2021/11/11 03:00:50;;;;;;;27.00;15.68;;;;;;;;;;4993041;28;20165;-52
2021/11/11 03:03:16;;;;;;;29.45;16.80;;;;;;;;;;4992823;28;20204;-51
2021/11/11 03:05:42;;;;;;;22.27;15.05;;;;;;;;;;4992699;28;20761;-51
2021/11/11 03:08:09;;;;;;;23.00;15.20;;;;;;;;;;4992650;28;20169;-51
2021/11/11 03:10:37;;;;;;;26.20;16.25;;;;;;;;;;4992897;28;20256;-52
2021/11/11 03:13:03;;;;;;;25.55;14.82;;;;;;;;;;4992542;28;20208;-52
2021/11/11 03:15:30;;;;;;;26.05;17.00;;;;;;;;;;4992817;28;20180;-52
2021/11/11 03:17:56;;;;;;;31.08;16.30;;;;;;;;;;4992504;28;20685;-51
2021/11/11 03:20:22;;;;;;;24.30;15.87;;;;;;;;;;4992710;28;20252;-52
2021/11/11 03:22:49;;;;;;;27.67;16.27;;;;;;;;;;4992641;28;20943;-51
2021/11/11 03:25:17;;;;;;;39.47;18.60;;;;;;;;;;4992663;28;20207;-52
2021/11/11 03:27:42;;;;;;;51.53;22.05;;;;;;;;;;4992316;28;20173;-52
2021/11/11 03:30:12;;;;;;;41.43;20.93;;;;;;;;;;4992579;28;20662;-52
2021/11/11 03:32:38;;;;;;;49.50;21.20;;;;;;;;;;4992465;28;20462;-51
2021/11/11 03:35:04;;;;;;;43.28;19.52;;;;;;;;;;4992448;28;20165;-51
2021/11/11 03:37:30;;;;;;;45.00;19.90;;;;;;;;;;4992267;28;20197;-51
2021/11/11 03:39:56;;;;;;;44.13;18.17;;;;;;;;;;4992479;28;20258;-51
2021/11/11 03:42:22;;;;;;;35.30;18.43;;;;;;;;;;4992431;28;20435;-52
2021/11/11 03:44:50;;;;;;;43.05;19.13;;;;;;;;;;4992419;28;20410;-51
2021/11/11 03:47:16;;;;;;;32.95;17.55;;;;;;;;;;4992439;28;20211;-52
2021/11/11 03:49:42;;;;;;;34.83;17.95;;;;;;;;;;4992656;28;20173;-52
2021/11/11 03:52:09;;;;;;;30.92;17.13;;;;;;;;;;4992183;28;20201;-52
2021/11/11 03:54:36;;;;;;;28.45;15.55;;;;;;;;;;4992355;28;20607;-52
2021/11/11 03:57:02;;;;;;;29.52;15.43;;;;;;;;;;4992302;28;20585;-52
2021/11/11 03:59:30;;;;;;;36.67;16.55;;;;;;;;;;4992155;28;20537;-51
2021/11/11 04:01:56;;;;;;;31.10;16.70;;;;;;;;;;4992225;28;20240;-51
2021/11/11 04:04:22;;;;;;;23.60;15.13;;;;;;;;;;4992864;28;20641;-52
2021/11/11 04:06:49;;;;;;;28.98;15.10;;;;;;;;;;4992171;28;20454;-52
2021/11/11 04:09:14;;;;;;;32.22;14.88;;;;;;;;;;4992043;28;20169;-52
2021/11/11 04:11:41;;;;;;;20.77;15.17;;;;;;;;;;4992184;28;20621;-52
2021/11/11 04:14:07;;;;;;;25.90;15.32;;;;;;;;;;4992048;28;20472;-52
2021/11/11 04:16:33;;;;;;;23.27;15.48;;;;;;;;;;4994518;28;20625;-52
2021/11/11 04:19:00;;;;;;;37.08;17.13;;;;;;;;;;4995804;28;20173;-51
2021/11/11 04:21:26;;;;;;;28.08;15.77;;;;;;;;;;4996059;28;20161;-51
2021/11/11 04:23:53;;;;;;;35.27;17.50;;;;;;;;;;4995911;28;20200;-51
2021/11/11 04:31:26;;;;;;;34.92;14.90;;;;;;;;;;4995693;28;20184;-51
2021/11/11 04:33:57;;;;;;;33.47;16.27;;;;;;;;;;4995781;28;20192;-51
2021/11/11 05:03:08;;;;;;;36.05;18.50;;;;;;;;;;4995485;28;20685;-51
2021/11/11 05:05:35;;;;;;;32.13;17.25;;;;;;;;;;4995300;28;20168;-51
2021/11/11 05:08:01;;;;;;;23.45;15.82;;;;;;;;;;4994971;28;20173;-51
2021/11/11 05:10:27;;;;;;;30.03;16.30;;;;;;;;;;4995181;28;20222;-51
2021/11/11 05:12:55;;;;;;;29.02;16.30;;;;;;;;;;4994817;28;20514;-52
2021/11/11 05:15:21;;;;;;;20.02;13.50;;;;;;;;;;4995304;28;20157;-49
2021/11/11 05:17:47;;;;;;;24.48;15.57;;;;;;;;;;4994755;28;20216;-50
2021/11/11 05:20:14;;;;;;;29.35;16.98;;;;;;;;;;4994902;28;20647;-51
2021/11/11 05:22:41;;;;;;;25.17;15.98;;;;;;;;;;4994869;28;20189;-49
2021/11/11 05:25:07;;;;;;;27.65;17.60;;;;;;;;;;4994872;28;20216;-50
2021/11/11 05:27:36;;;;;;;28.58;16.08;;;;;;;;;;4993454;28;20169;-49
2021/11/11 05:30:04;;;;;;;31.10;17.88;;;;;;;;;;4994802;28;20165;-49
2021/11/11 05:32:30;;;;;;;30.13;17.73;;;;;;;;;;4994629;28;20220;-50
2021/11/11 05:34:56;;;;;;;29.30;18.20;;;;;;;;;;4994623;28;20544;-51
2021/11/11 05:37:22;;;;;;;31.67;18.33;;;;;;;;;;4994460;28;20400;-51
2021/11/11 05:39:48;;;;;;;29.88;17.13;;;;;;;;;;4994505;28;21063;-49
2021/11/11 05:42:14;;;;;;;35.72;17.95;;;;;;;;;;4994420;28;20726;-50
2021/11/11 05:44:40;;;;;;;40.92;18.98;;;;;;;;;;4994427;28;20231;-49
2021/11/11 05:47:06;;;;;;;32.63;19.30;;;;;;;;;;4994375;28;20169;-49
2021/11/11 05:49:32;;;;;;;37.50;20.60;;;;;;;;;;4994102;28;20759;-50
2021/11/11 05:51:58;;;;;;;37.07;19.37;;;;;;;;;;4994161;28;20224;-49
2021/11/11 05:54:24;;;;;;;32.83;18.08;;;;;;;;;;4994214;28;20896;-50
2021/11/11 05:56:50;;;;;;;31.30;16.73;;;;;;;;;;4994158;28;20183;-50
2021/11/11 05:59:17;;;;;;;32.73;17.60;;;;;;;;;;4993986;28;20401;-49
2021/11/11 06:01:43;;;;;;;32.22;15.98;;;;;;;;;;4994232;28;20407;-49
2021/11/11 06:04:09;;;;;;;24.90;15.63;;;;;;;;;;4994055;28;20672;-49
2021/11/11 06:06:35;;;;;;;32.10;18.67;;;;;;;;;;4994000;28;20415;-49
2021/11/11 06:09:01;;;;;;;38.83;18.85;;;;;;;;;;4993701;28;20911;-50
2021/11/11 06:11:27;;;;;;;37.13;17.95;;;;;;;;;;4993912;28;20625;-49
2021/11/11 06:13:53;;;;;;;32.60;17.90;;;;;;;;;;4994543;28;20211;-51
2021/11/11 06:16:21;;;;;;;36.03;18.10;;;;;;;;;;4993884;28;20409;-51
2021/11/11 06:18:47;;;;;;;37.05;18.73;;;;;;;;;;4993626;28;20409;-52
2021/11/11 06:21:14;;;;;;;32.77;18.57;;;;;;;;;;4993778;28;20180;-51
2021/11/11 06:23:40;;;;;;;37.92;19.08;;;;;;;;;;4994032;28;20436;-51
2021/11/11 06:26:06;;;;;;;41.10;18.80;;;;;;;;;;4993678;28;20165;-51
2021/11/11 06:28:32;;;;;;;40.22;20.38;;;;;;;;;;4993362;28;20417;-51
2021/11/11 06:30:58;;;;;;;43.95;20.60;;;;;;;;;;4993651;28;20173;-51
2021/11/11 06:33:24;;;;;;;34.90;20.98;;;;;;;;;;4993341;28;20223;-50
2021/11/11 06:35:50;;;;;;;48.95;20.50;;;;;;;;;;4993514;28;20212;-51
2021/11/11 06:38:16;;;;;;;41.90;20.77;;;;;;;;;;4993403;28;20212;-50
2021/11/11 06:40:42;;;;;;;38.20;22.17;;;;;;;;;;4993545;28;20355;-49
2021/11/11 06:43:08;;;;;;;42.08;20.92;;;;;;;;;;4993346;28;20420;-49
2021/11/11 06:45:44;;;;;;;38.78;20.90;;;;;;;;;;4993366;28;20173;-49
2021/11/11 06:48:10;;;;;;;32.38;19.20;;;;;;;;;;4993017;28;20180;-50
2021/11/11 06:50:37;;;;;;;36.00;21.15;;;;;;;;;;4993200;28;20165;-50
2021/11/11 06:53:04;;;;;;;67.88;22.52;;;;;;;;;;4993044;28;20256;-49
2021/11/11 06:55:31;;;;;;;46.17;21.73;;;;;;;;;;4993146;28;20170;-49
2021/11/11 06:57:57;;;;;;;39.50;21.98;;;;;;;;;;4992893;28;20165;-49
2021/11/11 07:00:23;;;;;;;41.40;22.63;;;;;;;;;;4993056;28;20549;-49
2021/11/11 07:02:49;;;;;;;50.13;24.90;;;;;;;;;;4992949;28;20923;-50
2021/11/11 07:05:15;;;;;;;40.40;23.03;;;;;;;;;;4992898;28;20244;-49
2021/11/11 07:07:41;;;;;;;48.75;25.30;;;;;;;;;;4992563;28;20926;-49
2021/11/11 07:10:08;;;;;;;47.42;23.25;;;;;;;;;;4992933;28;20173;-49
2021/11/11 07:12:34;;;;;;;41.97;24.20;;;;;;;;;;4992685;28;20216;-49
2021/11/11 07:15:03;;;;;;;48.58;24.25;;;;;;;;;;4993185;28;20188;-49
2021/11/11 07:17:30;;;;;;;47.85;25.38;;;;;;;;;;4992463;28;20164;-49
2021/11/11 07:19:56;;;;;;;44.35;23.98;;;;;;;;;;4992738;28;20180;-49
2021/11/11 07:22:22;;;;;;;35.17;21.53;;;;;;;;;;4991381;28;20201;-49
2021/11/11 07:24:47;;;;;;;38.30;21.40;;;;;;;;;;4992748;28;20419;-50
2021/11/11 07:27:13;;;;;;;45.53;22.83;;;;;;;;;;4992526;28;20404;-49
2021/11/11 07:29:39;;;;;;;40.93;20.70;;;;;;;;;;4992467;28;20896;-51
2021/11/11 07:32:06;;;;;;;40.20;20.73;;;;;;;;;;4992407;28;20452;-49
2021/11/11 07:34:33;;;;;;;40.25;21.67;;;;;;;;;;4992464;28;20403;-51
2021/11/11 07:36:59;;;;;;;37.47;20.50;;;;;;;;;;4992507;28;20189;-49
2021/11/11 07:39:26;;;;;;;45.30;19.80;;;;;;;;;;4992288;28;20188;-49
2021/11/11 07:41:52;;;;;;;30.02;19.10;;;;;;;;;;4992564;28;20175;-49
2021/11/11 07:44:18;;;;;;;27.63;16.90;;;;;;;;;;4992420;28;20732;-49
2021/11/11 07:46:44;;;;;;;32.22;17.88;;;;;;;;;;4992307;28;20176;-49
2021/11/11 07:49:11;;;;;;;28.80;16.90;;;;;;;;;;4992089;28;20291;-50
2021/11/11 07:51:36;;;;;;;33.88;17.25;;;;;;;;;;4997647;28;20416;-50
2021/11/11 07:54:03;;;;;;;30.97;18.40;;;;;;;;;;4998827;28;20188;-49
2021/11/11 07:56:29;;;;;;;31.30;18.23;;;;;;;;;;4998808;28;20411;-49
2021/11/11 07:58:55;;;;;;;30.92;19.25;;;;;;;;;;4998652;28;20751;-52
2021/11/11 08:01:22;;;;;;;36.47;20.75;;;;;;;;;;4998775;28;20173;-51
2021/11/11 08:03:48;;;;;;;35.58;19.75;;;;;;;;;;4998696;28;20191;-50
2021/11/11 08:06:14;;;;;;;40.47;21.70;;;;;;;;;;4998989;28;20172;-49
2021/11/11 08:08:40;;;;;;;37.03;21.87;;;;;;;;;;4998474;28;20203;-50
2021/11/11 08:11:07;;;;;;;33.83;21.88;;;;;;;;;;4998773;28;20895;-49
2021/11/11 08:13:33;;;;;;;32.63;20.83;;;;;;;;;;4998430;28;20212;-50
2021/11/11 08:15:59;;;;;;;39.70;21.60;;;;;;;;;;4998708;28;20169;-50
2021/11/11 08:18:25;;;;;;;34.92;20.67;;;;;;;;;;4998377;28;20169;-50
2021/11/11 08:20:54;;;;;;;41.22;23.38;;;;;;;;;;4998687;28;20180;-49
2021/11/11 08:23:20;;;;;;;38.78;23.27;;;;;;;;;;4997812;28;20219;-49
2021/11/11 08:25:47;;;;;;;38.23;22.00;;;;;;;;;;4998934;28;20255;-50
2021/11/11 08:28:18;;;;;;;36.05;21.33;;;;;;;;;;4998307;28;20404;-51
2021/11/11 08:30:44;;;;;;;32.75;19.95;;;;;;;;;;4998461;28;20535;-50
2021/11/11 08:33:10;;;;;;;35.90;21.05;;;;;;;;;;4998364;28;20755;-50
2021/11/11 08:35:37;;;;;;;36.72;20.25;;;;;;;;;;4998532;28;20172;-50
2021/11/11 08:38:03;;;;;;;31.90;18.60;;;;;;;;;;4998226;28;20248;-50
2021/11/11 08:40:30;;;;;;;33.58;18.70;;;;;;;;;;4998502;28;20703;-49
2021/11/11 08:42:57;;;;;;;34.83;19.75;;;;;;;;;;4992366;28;20257;-52
2021/11/11 08:45:24;;;;;;;32.25;17.45;;;;;;;;;;5002780;28;20205;-52
2021/11/11 08:47:50;;;;;;;27.35;17.30;;;;;;;;;;5001203;28;20176;-52
2021/11/11 08:50:16;;;;;;;31.37;17.83;;;;;;;;;;4999318;28;20169;-53
2021/11/11 08:52:48;;;;;;;24.20;16.80;;;;;;;;;;4998922;28;20987;-52
2021/11/11 08:55:18;;;;;;;31.67;18.00;;;;;;;;;;4999158;28;20762;-52
2021/11/11 08:57:44;;;;;;;28.10;17.77;;;;;;;;;;4998856;28;20392;-52
2021/11/11 09:00:16;;;;;;;31.20;16.70;;;;;;;;;;4999216;28;20456;-52
2021/11/11 09:02:43;;;;;;;26.20;16.50;;;;;;;;;;4998135;28;20427;-52
2021/11/11 09:05:10;;;;;;;31.93;16.87;;;;;;;;;;4998136;28;20783;-52
2021/11/11 09:07:39;;;;;;;25.93;16.60;;;;;;;;;;5000844;28;20403;-51
2021/11/11 09:10:08;;;;;;;23.80;15.30;;;;;;;;;;5003003;28;20411;-52
2021/11/11 09:12:34;;;;;;;29.40;16.87;;;;;;;;;;5000813;28;21057;-53
2021/11/11 09:15:01;;;;;;;23.20;15.07;;;;;;;;;;4999502;28;20488;-53
2021/11/11 09:17:27;;;;;;;23.40;15.67;;;;;;;;;;4996262;28;20409;-53
2021/11/11 09:19:53;;;;;;;28.83;15.80;;;;;;;;;;4996638;28;20402;-53
2021/11/11 09:22:19;;;;;;;24.87;16.30;;;;;;;;;;4996880;28;20805;-53
2021/11/11 09:24:45;;;;;;;22.17;16.10;;;;;;;;;;4998025;28;20872;-53
2021/11/11 09:27:11;;;;;;;25.00;15.93;;;;;;;;;;4999336;28;20390;-53
2021/11/11 09:29:37;;;;;;;29.80;16.63;;;;;;;;;;5001581;28;20407;-53
2021/11/11 09:32:03;;;;;;;22.23;16.00;;;;;;;;;;5002737;28;20458;-54
2021/11/11 09:34:29;;;;;;;25.67;16.23;;;;;;;;;;5002415;28;20390;-53
2021/11/11 09:36:55;;;;;;;28.30;15.90;;;;;;;;;;5001493;28;20775;-53
2021/11/11 09:39:21;;;;;;;21.40;14.50;;;;;;;;;;5001147;28;20400;-54
2021/11/11 09:41:48;;;;;;;21.10;15.00;;;;;;;;;;5001293;28;20498;-53
2021/11/11 09:44:14;;;;;;;20.93;14.53;;;;;;;;;;5001025;28;20851;-53
2021/11/11 09:46:40;;;;;;;28.97;15.67;;;;;;;;;;5001543;28;20470;-54
2021/11/11 09:49:06;;;;;;;28.43;16.57;;;;;;;;;;5001102;28;20434;-54
2021/11/11 09:51:33;;;;;;;29.07;17.57;;;;;;;;;;5000352;28;20800;-54
2021/11/11 09:59:31;;;;;;;21.90;17.63;;;;;;;;;;5000302;28;20421;-53
2021/11/11 10:01:58;;;;;;;26.70;16.83;;;;;;;;;;4998483;28;20390;-53
2021/11/11 10:04:24;;;;;;;26.27;17.17;;;;;;;;;;4998369;28;20435;-53
2021/11/11 10:06:50;;;;;;;25.93;17.50;;;;;;;;;;4997845;28;20370;-54
2021/11/11 10:09:16;;;;;;;26.50;17.13;;;;;;;;;;4996725;28;20408;-53
2021/11/11 10:11:49;;;;;;;25.87;16.73;;;;;;;;;;4995634;28;20408;-53
2021/11/11 10:14:16;;;;;;;23.30;17.23;;;;;;;;;;4998070;28;20421;-54
2021/11/11 10:17:02;;;;;;;24.23;16.97;;;;;;;;;;5000880;28;20411;-54
2021/11/11 10:19:29;;;;;;;24.00;17.03;;;;;;;;;;5000986;28;20405;-53
2021/11/11 10:22:09;;;;;;;21.40;15.17;;;;;;;;;;5001021;28;20410;-53
2021/11/11 10:24:50;;;;;;;25.40;17.10;;;;;;;;;;5001134;28;20423;-54
2021/11/11 10:27:28;;;;;;;27.50;17.27;;;;;;;;;;5001231;28;20438;-54
2021/11/11 10:30:01;;;;;;;26.33;17.77;;;;;;;;;;5000346;28;20406;-54
2021/11/11 10:32:33;;;;;;;25.17;16.30;;;;;;;;;;4999317;28;20522;-54
2021/11/11 10:34:59;;;;;;;20.67;17.40;;;;;;;;;;4998141;28;20966;-54
2021/11/11 10:37:29;;;;;;;25.40;17.30;;;;;;;;;;4996959;28;20436;-54
2021/11/11 10:39:58;;;;;;;21.23;17.23;;;;;;;;;;4996862;28;20424;-54
2021/11/11 10:42:25;;;;;;;24.87;17.67;;;;;;;;;;4995897;28;20495;-54
2021/11/11 10:44:53;;;;;;;29.00;18.73;;;;;;;;;;4996707;28;20439;-56
2021/11/11 10:47:24;;;;;;;24.20;17.67;;;;;;;;;;4998055;28;20408;-54
2021/11/11 10:49:51;;;;;;;24.67;16.57;;;;;;;;;;4998404;28;20400;-53
2021/11/11 10:52:32;;;;;;;22.93;18.63;;;;;;;;;;4990594;28;20554;-54
2021/11/11 10:55:12;;;;;;;23.70;17.90;;;;;;;;;;4994939;28;20408;-54
2021/11/11 10:57:39;;;;;;;22.97;17.27;;;;;;;;;;4997055;28;20831;-51
2021/11/11 11:00:25;;;;;;;25.97;19.27;;;;;;;;;;4993826;28;20400;-51
2021/11/11 11:02:54;;;;;;;23.87;17.63;;;;;;;;;;4984185;28;20475;-53
2021/11/11 11:05:22;;;;;;;25.30;17.40;;;;;;;;;;4994583;28;20404;-53
2021/11/11 11:07:53;;;;;;;24.67;17.70;;;;;;;;;;4992612;28;20420;-52
2021/11/11 11:10:19;;;;;;;26.10;18.60;;;;;;;;;;4991815;28;20947;-52
2021/11/11 11:12:45;;;;;;;25.43;18.83;;;;;;;;;;4991613;28;20475;-52
2021/11/11 11:15:31;;;;;;;23.30;17.90;;;;;;;;;;4992952;28;20876;-51
2021/11/11 11:17:57;;;;;;;28.17;19.60;;;;;;;;;;4992559;28;20418;-52
2021/11/11 11:20:27;;;;;;;22.80;16.40;;;;;;;;;;4992753;28;20405;-52
2021/11/11 11:23:08;;;;;;;26.60;16.70;;;;;;;;;;4992724;28;20464;-54
2021/11/11 11:25:34;;;;;;;30.90;18.10;;;;;;;;;;4991986;28;20406;-52
2021/11/11 11:28:00;;;;;;;24.57;18.37;;;;;;;;;;4992375;28;20408;-52
2021/11/11 11:30:41;;;;;;;26.23;15.83;;;;;;;;;;4992583;28;20404;-53
2021/11/11 11:33:19;;;;;;;22.90;15.90;;;;;;;;;;4992609;28;20554;-52
2021/11/11 11:35:45;;;;;;;31.67;17.20;;;;;;;;;;4992857;28;20772;-52
2021/11/11 11:38:24;;;;;;;25.77;17.10;;;;;;;;;;4992244;28;20404;-52
2021/11/11 11:40:50;;;;;;;22.50;16.70;;;;;;;;;;4992617;28;20399;-52
2021/11/11 11:43:32;;;;;;;23.20;15.73;;;;;;;;;;4992542;28;20424;-52
2021/11/11 11:46:15;;;;;;;25.47;15.87;;;;;;;;;;4992587;28;20415;-52
2021/11/11 11:48:41;;;;;;;19.07;14.60;;;;;;;;;;4991516;28;20408;-53
2021/11/11 11:51:09;;;;;;;23.13;14.00;;;;;;;;;;4991657;28;20404;-52
2021/11/11 11:53:40;;;;;;;23.87;13.50;;;;;;;;;;4991678;28;20842;-51
2021/11/11 11:56:13;;;;;;;17.47;11.93;;;;;;;;;;4973065;28;20412;-53
2021/11/11 11:58:48;;;;;;;17.63;12.90;;;;;;;;;;4979402;28;20920;-52
2021/11/11 12:07:18;;;;;;;15.90;12.10;;;;;;;;;;4950486;28;20490;-52
2021/11/11 12:15:17;;;;;;;17.90;13.23;;;;;;;;;;4993013;28;20433;-52
2021/11/11 12:38:33;;;;;;;18.80;14.00;;;;;;;;;;4992019;28;20453;-52
2021/11/11 12:40:14;;;;;;;22.27;15.40;;;;;;;;;;4995794;28;20824;-52
2021/11/11 12:42:42;;;;;;;21.50;14.03;;;;;;;;;;4995500;28;21038;-52
2021/11/11 12:45:08;;;;;;;20.20;14.10;;;;;;;;;;4995602;28;20405;-51
2021/11/11 12:47:55;;;;;;;21.67;14.20;;;;;;;;;;4995224;28;20907;-51
2021/11/11 12:50:33;;;;;;;22.67;15.07;;;;;;;;;;4995517;28;20486;-51
2021/11/11 12:53:11;;;;;;;23.70;15.07;;;;;;;;;;4995246;28;20436;-51
2021/11/11 12:55:43;;;;;;;19.90;13.50;;;;;;;;;;4995384;28;20381;-51
2021/11/11 12:58:11;;;;;;;27.43;13.20;;;;;;;;;;4995086;28;20886;-51
2021/11/11 13:00:43;;;;;;;27.60;14.60;;;;;;;;;;4995482;28;20406;-51
2021/11/11 13:03:10;;;;;;;22.30;14.90;;;;;;;;;;4995249;28;20934;-52
2021/11/11 13:05:52;;;;;;;21.20;13.10;;;;;;;;;;4995161;28;20797;-51
2021/11/11 13:08:20;;;;;;;23.37;14.70;;;;;;;;;;4994919;28;20409;-51
2021/11/11 13:10:56;;;;;;;22.30;14.40;;;;;;;;;;4995247;28;20378;-51
2021/11/11 13:13:26;;;;;;;23.90;14.47;;;;;;;;;;4994826;28;20807;-51
2021/11/11 13:15:57;;;;;;;24.23;15.97;;;;;;;;;;4994343;28;20382;-51
2021/11/11 13:18:41;;;;;;;24.70;16.17;;;;;;;;;;4985534;28;20428;-51
2021/11/11 13:21:17;;;;;;;25.30;15.90;;;;;;;;;;4983570;28;20435;-51
2021/11/11 13:24:06;;;;;;;23.37;15.23;;;;;;;;;;4998289;28;20411;-51
2021/11/11 15:04:34;;;;;;;29.93;18.00;;;;;;;;;;4954841;28;20472;-53
2021/11/11 16:26:22;;;;;;;33.30;19.10;;;;;;;;;;4995956;28;20415;-53
2021/11/11 16:28:56;;;;;;;35.17;19.00;;;;;;;;;;4994621;28;21127;-53
2021/11/11 16:31:22;;;;;;;28.83;19.00;;;;;;;;;;4996016;28;20434;-53
2021/11/11 16:33:49;;;;;;;33.00;19.73;;;;;;;;;;4994209;28;20459;-53
2021/11/11 16:36:16;;;;;;;32.70;19.17;;;;;;;;;;4993851;28;20396;-53
2021/11/11 16:38:44;;;;;;;42.70;21.60;;;;;;;;;;4993548;28;20832;-53
2021/11/11 16:41:10;;;;;;;41.77;19.73;;;;;;;;;;4993763;28;20437;-53
2021/11/11 16:43:36;;;;;;;33.83;19.70;;;;;;;;;;4993769;28;20515;-53
2021/11/11 16:46:03;;;;;;;36.33;21.13;;;;;;;;;;4993650;28;20408;-52
2021/11/11 16:48:29;;;;;;;41.40;19.33;;;;;;;;;;4994220;28;20818;-53
2021/11/11 16:50:55;;;;;;;36.17;20.17;;;;;;;;;;4995083;28;20400;-53
2021/11/11 16:53:21;;;;;;;27.23;17.97;;;;;;;;;;4995141;28;20464;-53
2021/11/11 16:55:47;;;;;;;42.07;21.27;;;;;;;;;;4994215;28;20404;-53
2021/11/11 16:58:13;;;;;;;35.67;20.93;;;;;;;;;;4995056;28;20404;-53
2021/11/11 17:00:39;;;;;;;33.57;19.87;;;;;;;;;;4995415;28;20404;-53
2021/11/11 17:03:06;;;;;;;39.40;22.50;;;;;;;;;;4995268;28;20481;-53
2021/11/11 17:05:32;;;;;;;33.87;20.90;;;;;;;;;;4995163;28;20923;-53
2021/11/11 17:07:58;;;;;;;39.57;22.30;;;;;;;;;;4994952;28;20416;-53
2021/11/11 17:10:26;;;;;;;37.83;22.63;;;;;;;;;;4995338;28;20416;-53
2021/11/11 17:12:52;;;;;;;35.03;20.77;;;;;;;;;;4995011;28;20491;-53
2021/11/11 17:15:21;;;;;;;42.90;21.83;;;;;;;;;;4995201;28;20427;-53
2021/11/11 17:17:48;;;;;;;39.53;23.50;;;;;;;;;;4994773;28;20412;-53
2021/11/11 17:20:19;;;;;;;39.33;23.47;;;;;;;;;;4995086;28;20436;-52
2021/11/11 17:22:49;;;;;;;40.87;24.37;;;;;;;;;;4994178;28;20867;-53
2021/11/11 17:25:34;;;;;;;40.80;23.37;;;;;;;;;;4994798;28;20792;-53
2021/11/11 17:30:38;;;;;;;44.17;24.67;;;;;;;;;;4989082;28;20427;-53
2021/11/11 17:33:05;;;;;;;37.67;23.63;;;;;;;;;;4995452;28;21066;-53
2021/11/11 17:35:31;;;;;;;37.70;24.13;;;;;;;;;;4995392;28;20408;-51
2021/11/11 17:37:57;;;;;;;41.90;22.60;;;;;;;;;;4995317;28;20446;-52
2021/11/11 17:40:23;;;;;;;39.87;24.63;;;;;;;;;;4995471;28;20951;-53
2021/11/11 17:42:51;;;;;;;47.97;24.57;;;;;;;;;;4995211;28;21010;-51
2021/11/11 17:45:26;;;;;;;41.37;24.40;;;;;;;;;;4995076;28;20407;-52
2021/11/11 17:47:52;;;;;;;38.97;24.60;;;;;;;;;;4994521;28;20440;-53
2021/11/11 17:50:21;;;;;;;40.87;24.37;;;;;;;;;;4993093;28;20413;-52
2021/11/11 17:52:52;;;;;;;48.80;25.87;;;;;;;;;;4994475;28;20463;-53
2021/11/11 17:55:27;;;;;;;46.03;25.40;;;;;;;;;;4996324;28;20910;-52
2021/11/11 17:57:53;;;;;;;46.33;26.27;;;;;;;;;;4994429;28;20404;-51
2021/11/11 18:00:19;;;;;;;42.23;26.17;;;;;;;;;;4993186;28;20416;-52
2021/11/11 18:02:46;;;;;;;47.77;26.87;;;;;;;;;;4994512;28;20431;-52
2021/11/11 18:05:14;;;;;;;45.10;28.33;;;;;;;;;;4994534;28;20443;-52
2021/11/11 18:07:43;;;;;;;47.87;27.20;;;;;;;;;;4994314;28;21207;-52
2021/11/11 18:10:11;;;;;;;48.60;28.90;;;;;;;;;;4994878;28;20433;-53
2021/11/11 18:12:47;;;;;;;48.27;26.80;;;;;;;;;;4993997;28;20491;-53
2021/11/11 18:15:24;;;;;;;44.20;28.63;;;;;;;;;;4994274;28;20404;-52
2021/11/11 18:17:51;;;;;;;47.23;26.60;;;;;;;;;;4993976;28;20445;-51
2021/11/11 18:20:18;;;;;;;42.53;26.80;;;;;;;;;;4993692;28;20431;-51
2021/11/11 18:22:44;;;;;;;46.20;27.73;;;;;;;;;;4993653;28;20412;-51
2021/11/11 18:25:12;;;;;;;43.80;26.03;;;;;;;;;;4993723;28;20411;-51
2021/11/11 18:27:38;;;;;;;50.00;26.07;;;;;;;;;;4993227;28;20788;-51
2021/11/11 18:30:06;;;;;;;46.33;24.60;;;;;;;;;;4992895;28;20403;-51
2021/11/11 18:32:34;;;;;;;43.50;25.90;;;;;;;;;;4992732;28;20915;-50
2021/11/11 18:35:10;;;;;;;42.10;25.93;;;;;;;;;;4993535;28;20899;-51